Time;durP1;ratioP1;P1;durP2;ratioP2;P2;SDS_P1;SDS_P2;PMS_P1;PMS_P2;Temp;Humidity;BMP_temperature;BMP_pressure;BME280_temperature;BME280_humidity;BME280_pressure;Samples;Min_cycle;Max_cycle;Signal;HPM_P1;HPM_P2
2023/04/17 00:02:24;;;;;;;9.35;4.70;;;26.90;99.90;;;;;;5034370;28;20850;-66
2023/04/17 00:04:51;;;;;;;13.13;6.00;;;26.90;99.90;;;;;;5034092;28;20393;-67
2023/04/17 00:07:23;;;;;;;12.07;6.32;;;27.00;99.90;;;;;;5034382;28;20445;-66
2023/04/17 00:09:50;;;;;;;7.70;4.60;;;27.00;99.90;;;;;;5034185;28;20365;-69
2023/04/17 00:12:16;;;;;;;9.13;4.63;;;27.00;99.90;;;;;;5034341;28;20938;-68
2023/04/17 00:14:43;;;;;;;8.97;3.57;;;27.00;99.90;;;;;;5034200;28;20920;-67
2023/04/17 00:17:09;;;;;;;5.47;3.33;;;27.10;99.90;;;;;;5034053;28;20492;-67
2023/04/17 00:19:36;;;;;;;10.50;6.60;;;27.20;99.90;;;;;;5033856;28;20374;-66
2023/04/17 00:22:02;;;;;;;11.77;7.15;;;27.30;99.90;;;;;;5034258;28;20437;-66
2023/04/17 00:24:29;;;;;;;11.23;6.35;;;27.30;99.90;;;;;;5033982;28;20369;-66
2023/04/17 00:26:56;;;;;;;45.20;32.25;;;27.30;99.90;;;;;;5034029;28;20476;-66
2023/04/17 00:29:22;;;;;;;18.50;11.20;;;27.40;99.90;;;;;;5034424;28;20375;-66
2023/04/17 00:31:49;;;;;;;34.28;23.98;;;27.40;99.90;;;;;;5033910;28;20465;-68
2023/04/17 00:34:15;;;;;;;9.03;3.97;;;27.50;99.90;;;;;;5033764;28;20365;-67
2023/04/17 00:36:42;;;;;;;8.07;3.70;;;27.50;99.90;;;;;;5033727;28;20785;-67
2023/04/17 00:39:08;;;;;;;8.23;3.70;;;27.50;99.90;;;;;;5033636;28;20361;-66
2023/04/17 00:41:35;;;;;;;6.03;3.42;;;27.50;99.90;;;;;;5043285;28;20465;-66
2023/04/17 00:44:01;;;;;;;7.53;3.55;;;27.50;99.90;;;;;;5056229;28;20471;-66
2023/04/17 00:46:28;;;;;;;5.78;3.63;;;27.40;99.90;;;;;;5063548;28;20467;-66
2023/04/17 00:48:54;;;;;;;5.47;4.00;;;27.40;99.90;;;;;;5063215;28;20722;-66
2023/04/17 00:51:21;;;;;;;5.75;3.70;;;27.50;99.90;;;;;;5064576;28;20445;-66
2023/04/17 00:53:48;;;;;;;7.15;4.07;;;27.60;99.90;;;;;;5063228;28;20352;-65
2023/04/17 00:56:14;;;;;;;8.98;3.70;;;27.60;99.90;;;;;;5062452;28;20758;-65
2023/04/17 00:58:41;;;;;;;7.35;3.97;;;27.60;99.90;;;;;;5064104;28;20369;-65
2023/04/17 01:01:08;;;;;;;5.85;3.45;;;27.60;99.90;;;;;;5062870;28;20385;-66
2023/04/17 01:03:34;;;;;;;4.38;3.35;;;27.60;99.90;;;;;;5054408;28;20470;-64
2023/04/17 01:06:02;;;;;;;6.07;3.13;;;27.70;99.90;;;;;;5053280;28;20415;-64
2023/04/17 01:08:41;;;;;;;5.88;3.30;;;27.80;99.90;;;;;;5053318;28;20368;-64
2023/04/17 01:11:08;;;;;;;8.07;4.10;;;27.80;99.90;;;;;;5052112;28;20360;-65
2023/04/17 01:13:43;;;;;;;6.82;4.20;;;27.90;99.90;;;;;;5053063;28;20372;-64
2023/04/17 01:16:09;;;;;;;6.07;3.30;;;28.00;99.90;;;;;;5052873;28;20364;-64
2023/04/17 01:18:36;;;;;;;4.60;3.30;;;28.10;99.90;;;;;;5052940;28;20438;-64
2023/04/17 01:21:02;;;;;;;4.87;3.23;;;28.20;99.90;;;;;;5052906;28;20378;-66
2023/04/17 01:23:29;;;;;;;6.78;3.42;;;28.20;99.90;;;;;;5052873;28;20376;-65
2023/04/17 01:25:55;;;;;;;5.13;3.00;;;28.20;99.90;;;;;;5045897;28;20403;-65
2023/04/17 01:28:22;;;;;;;5.85;3.13;;;28.20;99.90;;;;;;5037157;28;20385;-65
2023/04/17 01:30:48;;;;;;;5.97;3.25;;;28.20;99.90;;;;;;5032310;28;20398;-64
2023/04/17 01:33:15;;;;;;;4.72;3.13;;;28.30;99.90;;;;;;5032702;28;20785;-64
2023/04/17 01:35:41;;;;;;;5.43;3.17;;;28.30;99.90;;;;;;5032868;28;20369;-64
2023/04/17 01:38:08;;;;;;;6.30;3.50;;;28.30;99.90;;;;;;5032571;28;20850;-66
2023/04/17 01:40:34;;;;;;;3.88;3.25;;;28.40;99.90;;;;;;5032529;28;20377;-66
2023/04/17 01:43:01;;;;;;;7.28;3.90;;;28.40;99.90;;;;;;5032611;28;20381;-67
2023/04/17 01:45:27;;;;;;;6.97;4.07;;;28.50;99.90;;;;;;5032446;28;20469;-66
2023/04/17 01:47:54;;;;;;;5.23;3.47;;;28.60;99.90;;;;;;5032465;28;20368;-66
2023/04/17 01:50:20;;;;;;;5.40;3.70;;;28.60;99.90;;;;;;5032492;28;20448;-66
2023/04/17 01:52:47;;;;;;;5.82;3.90;;;28.70;99.90;;;;;;5032452;28;20423;-66
2023/04/17 01:55:13;;;;;;;7.15;3.70;;;28.70;99.90;;;;;;5032370;28;20365;-66
2023/04/17 01:57:41;;;;;;;6.53;3.63;;;28.80;99.90;;;;;;5032324;28;20404;-67
2023/04/17 02:00:09;;;;;;;4.88;3.10;;;28.80;99.90;;;;;;5032353;28;20699;-67
2023/04/17 02:02:36;;;;;;;5.47;3.57;;;29.00;99.90;;;;;;5032221;28;20369;-66
2023/04/17 02:05:02;;;;;;;5.77;3.10;;;29.00;99.90;;;;;;5032149;28;20393;-66
2023/04/17 02:07:29;;;;;;;5.68;3.15;;;29.20;99.90;;;;;;5032406;28;20374;-66
2023/04/17 02:09:55;;;;;;;6.78;3.42;;;29.20;99.90;;;;;;5032234;28;20396;-67
2023/04/17 02:12:22;;;;;;;5.18;2.90;;;29.20;99.90;;;;;;5032227;28;20391;-66
2023/04/17 02:14:48;;;;;;;7.78;3.25;;;29.20;99.90;;;;;;5032339;28;20411;-67
2023/04/17 02:17:15;;;;;;;4.80;2.70;;;29.30;99.90;;;;;;5032038;28;20373;-66
2023/04/17 02:19:42;;;;;;;4.43;2.63;;;29.40;99.90;;;;;;5032187;28;20397;-67
2023/04/17 02:22:08;;;;;;;4.20;2.37;;;29.50;99.90;;;;;;5032156;28;20368;-66
2023/04/17 02:24:34;;;;;;;2.83;2.53;;;29.50;99.90;;;;;;5032085;28;20808;-67
2023/04/17 02:27:01;;;;;;;3.17;1.70;;;29.60;99.90;;;;;;5032035;28;20439;-66
2023/04/17 02:29:28;;;;;;;3.55;2.03;;;29.60;99.90;;;;;;5032125;28;20377;-67
2023/04/17 02:31:54;;;;;;;5.22;2.15;;;29.70;99.90;;;;;;5031986;28;20377;-66
2023/04/17 02:34:21;;;;;;;3.35;2.00;;;29.70;99.90;;;;;;5032013;28;20504;-66
2023/04/17 02:36:47;;;;;;;4.32;2.30;;;29.70;99.90;;;;;;5032080;28;20370;-67
2023/04/17 02:39:14;;;;;;;3.28;2.35;;;29.70;99.90;;;;;;5032003;28;20456;-66
2023/04/17 02:41:40;;;;;;;3.33;1.95;;;29.90;99.90;;;;;;5032233;28;20365;-67
2023/04/17 02:44:07;;;;;;;3.08;2.10;;;29.90;99.90;;;;;;5035953;28;20383;-67
2023/04/17 02:46:33;;;;;;;3.75;2.22;;;29.90;99.90;;;;;;5035856;28;20389;-67
2023/04/17 02:49:00;;;;;;;3.88;2.22;;;29.90;99.90;;;;;;5035673;28;20830;-67
2023/04/17 02:51:29;;;;;;;3.30;2.15;;;30.00;99.90;;;;;;5065562;28;20384;-66
2023/04/17 02:53:56;;;;;;;6.15;2.58;;;30.00;99.90;;;;;;5070615;28;20745;-69
2023/04/17 02:56:22;;;;;;;4.60;2.70;;;30.10;99.90;;;;;;5058339;28;20428;-68
2023/04/17 02:58:49;;;;;;;5.93;2.50;;;30.20;99.90;;;;;;5046609;28;20429;-67
2023/04/17 03:01:15;;;;;;;7.55;2.80;;;30.30;99.90;;;;;;5035641;28;20485;-68
2023/04/17 03:03:43;;;;;;;4.80;2.67;;;30.40;99.90;;;;;;5035376;28;20365;-68
2023/04/17 03:06:10;;;;;;;4.57;2.63;;;30.40;99.90;;;;;;5035226;28;20433;-68
2023/04/17 03:08:37;;;;;;;4.75;2.42;;;30.50;99.90;;;;;;5034118;28;20803;-68
2023/04/17 03:11:04;;;;;;;4.97;2.70;;;30.50;99.90;;;;;;5035862;28;20400;-68
2023/04/17 03:13:35;;;;;;;5.18;2.65;;;30.50;99.90;;;;;;5035746;28;20847;-68
2023/04/17 03:16:03;;;;;;;4.75;2.75;;;30.60;99.90;;;;;;5035300;28;20400;-68
2023/04/17 03:18:30;;;;;;;4.75;2.80;;;30.60;99.90;;;;;;5035168;28;20366;-69
2023/04/17 03:20:57;;;;;;;4.43;3.20;;;30.70;99.90;;;;;;5035330;28;20381;-68
2023/04/17 03:23:24;;;;;;;3.00;2.30;;;30.80;99.90;;;;;;5035429;28;20714;-70
2023/04/17 03:25:50;;;;;;;4.93;2.70;;;30.90;99.90;;;;;;5034978;28;20385;-68
2023/04/17 03:28:17;;;;;;;5.18;2.75;;;30.90;99.90;;;;;;5035217;28;20365;-68
2023/04/17 03:30:44;;;;;;;4.95;2.67;;;30.90;99.90;;;;;;5035004;28;20365;-67
2023/04/17 03:33:10;;;;;;;4.18;2.70;;;31.00;99.90;;;;;;5035156;28;20449;-68
2023/04/17 03:35:37;;;;;;;3.33;2.70;;;31.00;99.90;;;;;;5034983;28;20737;-67
2023/04/17 03:38:03;;;;;;;4.22;2.60;;;31.00;99.90;;;;;;5035149;28;20737;-67
2023/04/17 03:40:30;;;;;;;4.40;2.35;;;31.10;99.90;;;;;;5034697;28;20457;-67
2023/04/17 03:42:56;;;;;;;4.80;3.08;;;31.00;99.90;;;;;;5035240;28;20366;-68
2023/04/17 03:45:23;;;;;;;6.18;2.78;;;31.10;99.90;;;;;;5035242;28;20409;-68
2023/04/17 03:47:49;;;;;;;5.75;2.78;;;31.20;99.90;;;;;;5034689;28;20416;-71
2023/04/17 03:50:16;;;;;;;3.25;2.65;;;31.30;99.90;;;;;;5051971;28;20721;-69
2023/04/17 03:52:43;;;;;;;5.72;2.40;;;31.30;99.90;;;;;;5054668;28;20876;-70
2023/04/17 03:55:10;;;;;;;4.32;2.30;;;31.30;99.90;;;;;;5054196;28;20364;-72
2023/04/17 03:57:36;;;;;;;6.22;2.55;;;31.40;99.90;;;;;;5054527;28;20371;-69
2023/04/17 04:00:06;;;;;;;4.53;2.70;;;31.50;99.90;;;;;;5072702;28;20374;-70
2023/04/17 04:02:33;;;;;;;4.77;2.80;;;31.50;99.90;;;;;;5074614;28;20501;-69
2023/04/17 04:04:59;;;;;;;4.83;2.63;;;31.60;99.90;;;;;;5074374;28;20731;-69
2023/04/17 04:07:26;;;;;;;4.90;2.40;;;31.70;99.90;;;;;;5074270;28;20366;-70
2023/04/17 04:09:52;;;;;;;8.83;3.13;;;31.70;99.90;;;;;;5073947;28;20354;-68
2023/04/17 04:12:19;;;;;;;6.57;2.90;;;31.80;99.90;;;;;;5074103;28;20365;-73
2023/04/17 04:14:45;;;;;;;5.53;2.77;;;31.80;99.90;;;;;;5073961;28;20366;-73
2023/04/17 04:17:12;;;;;;;5.10;3.00;;;31.80;99.90;;;;;;5070167;28;20368;-73
2023/04/17 04:19:38;;;;;;;3.97;2.60;;;31.90;99.90;;;;;;5061480;28;20363;-68
2023/04/17 04:22:05;;;;;;;5.67;2.97;;;31.90;99.90;;;;;;5062769;28;20362;-69
2023/04/17 04:24:32;;;;;;;5.60;2.70;;;31.90;99.90;;;;;;5051276;28;20399;-69
2023/04/17 04:27:03;;;;;;;5.05;3.38;;;31.90;99.90;;;;;;5060572;28;20389;-69
2023/04/17 04:29:30;;;;;;;4.80;3.53;;;31.90;99.90;;;;;;5060955;28;20364;-67
2023/04/17 04:31:57;;;;;;;4.80;3.13;;;32.00;99.90;;;;;;5059983;28;20777;-71
2023/04/17 04:34:28;;;;;;;10.32;3.15;;;32.10;99.90;;;;;;5057886;28;20363;-69
2023/04/17 04:36:55;;;;;;;6.13;3.22;;;32.10;99.90;;;;;;5060253;28;20371;-72
2023/04/17 04:39:22;;;;;;;8.05;3.15;;;32.20;99.90;;;;;;5062095;28;20420;-72
2023/04/17 04:41:50;;;;;;;3.85;2.67;;;32.20;99.90;;;;;;5061103;28;20368;-72
2023/04/17 04:44:18;;;;;;;3.95;2.67;;;32.20;99.90;;;;;;5061733;28;20413;-74
2023/04/17 04:46:45;;;;;;;4.90;3.10;;;32.30;99.90;;;;;;5059286;28;20733;-73
2023/04/17 04:49:12;;;;;;;36.38;31.00;;;32.40;99.90;;;;;;5062167;28;20368;-72
2023/04/17 04:51:39;;;;;;;82.82;69.80;;;32.50;99.90;;;;;;5061220;28;20361;-75
2023/04/17 04:54:06;;;;;;;8.43;6.53;;;32.60;99.90;;;;;;5062709;28;20358;-73
2023/04/17 04:56:32;;;;;;;11.85;8.98;;;32.60;99.90;;;;;;5062643;28;20441;-75
2023/04/17 04:58:59;;;;;;;63.30;44.90;;;32.70;99.90;;;;;;5061132;28;20386;-75
2023/04/17 05:01:26;;;;;;;12.60;7.63;;;32.60;99.90;;;;;;5057711;28;20366;-70
2023/04/17 05:03:53;;;;;;;3.67;2.40;;;32.70;99.90;;;;;;5053172;28;20849;-72
2023/04/17 05:06:19;;;;;;;4.43;2.80;;;32.70;99.90;;;;;;5052264;28;20396;-73
2023/04/17 05:08:46;;;;;;;4.35;3.00;;;32.70;99.90;;;;;;5049570;28;20419;-72
2023/04/17 05:11:13;;;;;;;6.40;3.42;;;32.70;99.90;;;;;;5034114;28;20821;-75
2023/04/17 05:13:39;;;;;;;6.65;3.10;;;32.80;99.90;;;;;;5033133;28;20358;-73
2023/04/17 05:16:06;;;;;;;6.10;2.60;;;32.90;99.90;;;;;;5032839;28;20764;-71
2023/04/17 05:18:32;;;;;;;3.92;2.70;;;33.10;99.90;;;;;;5033295;28;20743;-73
2023/04/17 05:20:59;;;;;;;7.03;3.92;;;33.10;99.90;;;;;;5046007;28;20430;-69
2023/04/17 05:23:27;;;;;;;4.55;3.08;;;33.00;99.90;;;;;;5039713;28;20905;-67
2023/04/17 05:25:53;;;;;;;5.10;3.05;;;33.20;99.90;;;;;;5042809;28;20476;-70
2023/04/17 05:28:20;;;;;;;6.90;3.45;;;33.30;99.90;;;;;;5033043;28;20357;-69
2023/04/17 05:30:46;;;;;;;4.97;3.50;;;33.40;99.90;;;;;;5032874;28;20353;-69
2023/04/17 05:33:13;;;;;;;5.78;3.60;;;33.30;99.90;;;;;;5032561;28;20387;-67
2023/04/17 05:35:40;;;;;;;4.40;3.08;;;33.40;99.90;;;;;;5032731;28;20361;-69
2023/04/17 05:38:06;;;;;;;5.35;3.63;;;33.40;99.90;;;;;;5032619;28;20465;-66
2023/04/17 05:40:33;;;;;;;6.53;3.90;;;33.40;99.90;;;;;;5034748;28;20393;-66
2023/04/17 05:43:10;;;;;;;34.08;23.23;;;33.40;99.90;;;;;;5032593;28;20369;-68
2023/04/17 05:45:37;;;;;;;10.27;7.70;;;33.40;99.90;;;;;;5032232;28;20393;-70
2023/04/17 05:48:03;;;;;;;7.47;6.13;;;33.40;99.90;;;;;;5032616;28;20803;-72
2023/04/17 05:50:30;;;;;;;8.90;5.03;;;33.50;99.90;;;;;;5047512;28;20388;-69
2023/04/17 05:52:56;;;;;;;6.50;4.33;;;33.50;99.90;;;;;;5054295;28;20379;-70
2023/04/17 05:55:23;;;;;;;7.30;4.60;;;33.60;99.90;;;;;;5061939;28;20370;-69
2023/04/17 05:57:50;;;;;;;6.80;5.00;;;33.60;99.90;;;;;;5061694;28;20372;-69
2023/04/17 06:00:17;;;;;;;6.27;4.27;;;33.70;99.90;;;;;;5060214;28;20852;-71
2023/04/17 06:02:44;;;;;;;6.80;4.87;;;33.70;99.90;;;;;;5061757;28;20848;-66
2023/04/17 06:05:10;;;;;;;6.15;4.38;;;33.60;99.90;;;;;;5061486;28;20808;-67
2023/04/17 06:07:37;;;;;;;65.00;51.38;;;33.60;99.90;;;;;;5060094;28;20398;-69
2023/04/17 06:10:07;;;;;;;24.60;18.88;;;33.70;99.90;;;;;;5061501;28;20363;-69
2023/04/17 06:12:34;;;;;;;6.20;4.88;;;33.70;99.90;;;;;;5062070;28;20439;-69
2023/04/17 06:15:01;;;;;;;10.63;7.72;;;33.80;99.90;;;;;;5058906;28;20377;-73
2023/04/17 06:17:27;;;;;;;7.43;4.63;;;33.90;99.90;;;;;;5060845;28;20372;-71
2023/04/17 06:19:54;;;;;;;6.40;3.80;;;33.90;99.90;;;;;;5058187;28;20354;-71
2023/04/17 06:22:21;;;;;;;5.57;3.92;;;33.90;99.90;;;;;;5060024;28;20361;-70
2023/04/17 06:24:47;;;;;;;8.23;4.50;;;33.90;99.90;;;;;;5060809;28;20386;-71
2023/04/17 06:27:14;;;;;;;7.03;4.07;;;33.90;99.90;;;;;;5060005;28;20390;-69
2023/04/17 06:29:40;;;;;;;7.10;4.13;;;34.10;99.90;;;;;;5057306;28;20430;-69
2023/04/17 06:32:07;;;;;;;6.00;3.63;;;34.20;99.90;;;;;;5060883;28;20374;-70
2023/04/17 06:34:34;;;;;;;5.28;3.20;;;34.20;99.90;;;;;;5061768;28;20517;-70
2023/04/17 06:37:00;;;;;;;5.25;3.42;;;34.10;99.90;;;;;;5057247;28;20395;-69
2023/04/17 06:39:27;;;;;;;4.60;3.50;;;34.20;99.90;;;;;;5061148;28;20711;-70
2023/04/17 06:41:54;;;;;;;5.78;3.55;;;34.20;99.90;;;;;;5061777;28;20449;-69
2023/04/17 06:44:21;;;;;;;4.23;3.23;;;34.20;99.90;;;;;;5052458;28;20467;-68
2023/04/17 06:46:52;;;;;;;4.67;2.90;;;34.30;99.90;;;;;;5044443;28;20398;-69
2023/04/17 06:49:19;;;;;;;3.53;3.05;;;34.30;99.90;;;;;;5062922;28;20373;-70
2023/04/17 06:51:46;;;;;;;4.65;3.10;;;34.50;99.90;;;;;;5061539;28;20764;-70
2023/04/17 06:54:13;;;;;;;5.00;3.30;;;34.50;99.90;;;;;;5056127;28;20373;-69
2023/04/17 06:56:39;;;;;;;8.55;4.50;;;34.50;99.90;;;;;;5052273;28;20371;-73
2023/04/17 06:59:06;;;;;;;9.73;6.57;;;34.50;99.90;;;;;;5054463;28;20422;-73
2023/04/17 07:01:33;;;;;;;6.38;4.80;;;34.60;99.90;;;;;;5057272;28;20723;-73
2023/04/17 07:04:01;;;;;;;5.80;4.30;;;34.70;99.90;;;;;;5059279;28;20374;-69
2023/04/17 07:06:28;;;;;;;5.33;3.93;;;34.70;99.90;;;;;;5061546;28;20394;-69
2023/04/17 07:08:55;;;;;;;6.47;4.10;;;34.70;99.90;;;;;;5059940;28;20368;-69
2023/04/17 07:11:21;;;;;;;7.20;3.90;;;34.60;99.90;;;;;;5059597;28;20394;-70
2023/04/17 07:13:48;;;;;;;4.43;3.70;;;34.70;99.90;;;;;;5050156;28;20370;-70
2023/04/17 07:16:15;;;;;;;6.88;3.80;;;34.60;99.90;;;;;;5040840;28;20385;-70
2023/04/17 07:18:41;;;;;;;6.25;3.70;;;34.50;99.90;;;;;;5055909;28;20879;-70
2023/04/17 07:21:08;;;;;;;8.40;3.72;;;34.40;99.90;;;;;;5060945;28;20374;-70
2023/04/17 07:23:35;;;;;;;6.87;4.20;;;34.40;99.90;;;;;;5062021;28;20441;-70
2023/04/17 07:26:01;;;;;;;5.78;3.60;;;34.60;99.90;;;;;;5060467;28;20453;-70
2023/04/17 07:28:27;;;;;;;4.80;3.72;;;34.60;99.90;;;;;;5059492;28;20429;-70
2023/04/17 07:30:56;;;;;;;4.07;3.47;;;34.60;99.90;;;;;;5063702;28;20437;-69
2023/04/17 07:33:23;;;;;;;7.25;3.47;;;34.60;99.90;;;;;;5065601;28;20903;-71
2023/04/17 07:35:50;;;;;;;6.03;3.92;;;34.60;99.90;;;;;;5064188;28;20463;-72
2023/04/17 07:38:16;;;;;;;9.27;3.88;;;34.50;99.90;;;;;;5063565;28;20358;-72
2023/04/17 07:40:43;;;;;;;5.35;3.50;;;34.60;99.90;;;;;;5065784;28;20876;-73
2023/04/17 07:43:09;;;;;;;5.43;3.75;;;34.70;99.90;;;;;;5063386;28;20362;-73
2023/04/17 07:45:36;;;;;;;6.90;3.58;;;34.80;99.90;;;;;;5062593;28;20397;-73
2023/04/17 07:48:03;;;;;;;6.20;4.15;;;34.90;99.90;;;;;;5064648;28;20359;-73
2023/04/17 07:50:30;;;;;;;5.38;4.15;;;34.80;99.90;;;;;;5063486;28;20850;-72
2023/04/17 07:52:56;;;;;;;5.20;3.80;;;34.80;99.90;;;;;;5065043;28;20898;-73
2023/04/17 07:55:23;;;;;;;7.40;5.03;;;34.90;99.90;;;;;;5063538;28;20368;-72
2023/04/17 07:57:50;;;;;;;7.90;4.47;;;34.90;99.90;;;;;;5061697;28;20367;-72
2023/04/17 08:00:17;;;;;;;6.57;3.60;;;34.90;99.90;;;;;;5062864;28;20770;-74
2023/04/17 08:02:44;;;;;;;5.93;3.80;;;35.00;99.90;;;;;;5058614;28;20407;-74
2023/04/17 08:05:11;;;;;;;9.65;3.78;;;35.00;99.90;;;;;;5062086;28;20410;-75
2023/04/17 08:07:38;;;;;;;4.90;3.92;;;34.90;99.70;;;;;;5063191;28;20489;-75
2023/04/17 08:10:05;;;;;;;7.32;3.80;;;34.90;99.90;;;;;;5061258;28;20757;-77
2023/04/17 08:12:32;;;;;;;5.53;4.15;;;34.90;99.90;;;;;;5045503;28;20443;-78
2023/04/17 08:14:59;;;;;;;4.72;3.70;;;35.00;99.90;;;;;;5041351;28;20427;-74
2023/04/17 08:17:28;;;;;;;6.13;3.75;;;34.90;99.90;;;;;;5034334;28;20447;-75
2023/04/17 08:19:56;;;;;;;5.60;3.88;;;34.80;99.40;;;;;;5034280;28;20364;-76
2023/04/17 08:22:24;;;;;;;6.68;3.70;;;34.70;99.30;;;;;;5039041;28;20891;-73
2023/04/17 08:24:56;;;;;;;5.35;3.55;;;34.60;99.40;;;;;;5041052;28;20381;-77
2023/04/17 08:27:24;;;;;;;10.07;3.90;;;34.70;99.30;;;;;;5040596;28;20420;-73
2023/04/17 08:29:52;;;;;;;4.85;3.83;;;34.70;99.80;;;;;;5039024;28;20387;-73
2023/04/17 08:32:20;;;;;;;7.70;4.43;;;34.80;99.60;;;;;;5038314;28;20395;-72
2023/04/17 08:34:46;;;;;;;4.88;3.40;;;34.80;99.30;;;;;;5043056;28;20465;-72
2023/04/17 08:37:13;;;;;;;5.80;4.00;;;34.90;99.00;;;;;;5033773;28;20489;-72
2023/04/17 08:39:40;;;;;;;5.68;3.58;;;35.00;99.50;;;;;;5043212;28;20817;-73
2023/04/17 08:42:09;;;;;;;6.05;4.03;;;35.00;99.00;;;;;;5033661;28;20389;-74
2023/04/17 08:44:36;;;;;;;5.70;3.88;;;35.00;98.80;;;;;;5035472;28;20442;-74
2023/04/17 08:47:03;;;;;;;4.10;3.30;;;35.10;98.90;;;;;;5046075;28;20398;-74
2023/04/17 08:49:33;;;;;;;3.83;3.17;;;35.10;98.60;;;;;;5040520;28;20373;-73
2023/04/17 08:52:03;;;;;;;5.43;3.25;;;35.10;98.40;;;;;;5033704;28;20846;-72
2023/04/17 08:54:34;;;;;;;3.78;3.25;;;35.20;98.40;;;;;;5033868;28;20383;-72
2023/04/17 08:57:02;;;;;;;4.55;3.42;;;35.20;98.00;;;;;;5042588;28;20400;-71
2023/04/17 08:59:30;;;;;;;4.85;3.05;;;35.20;97.50;;;;;;5033713;28;20404;-72
2023/04/17 09:02:06;;;;;;;4.13;2.83;;;35.00;96.10;;;;;;5053380;28;20364;-70
2023/04/17 09:04:37;;;;;;;4.70;3.30;;;35.00;96.90;;;;;;5052972;28;20737;-75
2023/04/17 09:07:05;;;;;;;30.02;20.48;;;35.00;97.40;;;;;;5053175;28;20392;-74
2023/04/17 09:09:55;;;;;;;12.27;9.43;;;35.00;97.30;;;;;;5053224;28;20368;-74
2023/04/17 09:12:24;;;;;;;20.80;15.00;;;35.00;97.40;;;;;;5044568;28;20415;-72
2023/04/17 09:14:51;;;;;;;19.70;14.93;;;35.00;97.50;;;;;;5037063;28;20440;-73
2023/04/17 09:17:19;;;;;;;15.90;12.37;;;35.00;96.90;;;;;;5042316;28;20369;-73
2023/04/17 09:20:07;;;;;;;8.93;5.10;;;35.00;96.70;;;;;;5039432;28;20394;-74
2023/04/17 09:22:36;;;;;;;9.10;3.97;;;35.00;96.60;;;;;;5033436;28;20447;-71
2023/04/17 09:25:04;;;;;;;5.35;3.85;;;35.00;94.80;;;;;;5034352;28;20389;-72
2023/04/17 09:27:30;;;;;;;6.55;3.90;;;34.90;95.60;;;;;;5052880;28;20375;-72
2023/04/17 09:29:58;;;;;;;8.63;6.28;;;34.90;95.00;;;;;;5040399;28;20380;-71
2023/04/17 09:32:25;;;;;;;25.45;22.60;;;34.90;95.30;;;;;;5032777;28;20362;-72
2023/04/17 09:34:53;;;;;;;14.48;12.35;;;34.80;95.20;;;;;;5034285;28;20849;-72
2023/04/17 09:37:20;;;;;;;6.70;4.63;;;34.80;95.10;;;;;;5052498;28;20475;-73
2023/04/17 09:39:58;;;;;;;10.23;6.57;;;34.80;94.20;;;;;;5052655;28;20395;-73
2023/04/17 09:42:25;;;;;;;35.38;31.05;;;34.80;94.50;;;;;;5052465;28;20721;-72
2023/04/17 09:44:53;;;;;;;6.80;5.07;;;34.80;94.70;;;;;;5052679;28;20391;-72
2023/04/17 09:47:21;;;;;;;5.25;3.78;;;34.80;94.20;;;;;;5052500;28;20434;-72
2023/04/17 09:49:51;;;;;;;7.22;4.30;;;34.80;94.40;;;;;;5033198;28;20380;-70
2023/04/17 09:52:22;;;;;;;7.33;4.60;;;34.90;94.60;;;;;;5032199;28;20392;-70
2023/04/17 09:54:52;;;;;;;7.55;4.90;;;34.90;94.40;;;;;;5032457;28;20368;-70
2023/04/17 09:57:19;;;;;;;11.15;7.10;;;34.90;94.30;;;;;;5032389;28;20858;-70
2023/04/17 09:59:48;;;;;;;6.60;4.60;;;34.90;94.20;;;;;;5032447;28;20381;-69
2023/04/17 10:02:17;;;;;;;7.47;5.20;;;34.90;94.00;;;;;;5049034;28;20857;-70
2023/04/17 10:04:44;;;;;;;10.35;5.32;;;34.80;93.40;;;;;;5052009;28;20391;-69
2023/04/17 10:07:12;;;;;;;7.80;4.20;;;34.80;93.40;;;;;;5041194;28;20399;-69
2023/04/17 10:09:40;;;;;;;6.60;4.00;;;34.70;92.80;;;;;;5032296;28;20726;-70
2023/04/17 10:12:13;;;;;;;10.68;6.85;;;34.70;93.10;;;;;;5032317;28;20841;-70
2023/04/17 10:14:45;;;;;;;21.77;14.57;;;34.70;92.90;;;;;;5035002;28;20741;-69
2023/04/17 10:17:23;;;;;;;23.33;13.27;;;34.60;93.10;;;;;;5039609;28;20369;-70
2023/04/17 10:19:50;;;;;;;25.20;14.32;;;34.70;93.30;;;;;;5032247;28;20373;-70
2023/04/17 10:22:17;;;;;;;20.80;11.65;;;34.60;93.40;;;;;;5032340;28;20357;-69
2023/04/17 10:24:47;;;;;;;18.83;10.20;;;34.60;93.50;;;;;;5032072;28;20377;-70
2023/04/17 10:27:25;;;;;;;17.13;8.18;;;34.70;94.10;;;;;;5031574;28;20484;-69
2023/04/17 10:29:53;;;;;;;14.68;8.82;;;34.70;94.10;;;;;;5037808;28;20468;-71
2023/04/17 10:32:20;;;;;;;12.07;6.70;;;34.60;94.20;;;;;;5044590;28;20367;-71
2023/04/17 10:34:47;;;;;;;13.07;6.73;;;34.60;94.20;;;;;;5052003;28;20874;-72
2023/04/17 10:37:14;;;;;;;8.27;5.43;;;34.60;94.30;;;;;;5042119;28;20376;-71
2023/04/17 10:39:53;;;;;;;9.18;5.32;;;34.60;94.50;;;;;;5032118;28;20455;-70
2023/04/17 10:42:21;;;;;;;25.27;20.08;;;34.60;94.20;;;;;;5033903;28;20701;-69
2023/04/17 10:44:48;;;;;;;21.02;16.15;;;34.60;94.10;;;;;;5042732;28;20405;-71
2023/04/17 10:47:18;;;;;;;23.65;16.48;;;34.50;93.70;;;;;;5039653;28;20401;-69
2023/04/17 10:49:58;;;;;;;36.43;28.00;;;34.50;93.80;;;;;;5050456;28;20407;-71
2023/04/17 10:52:36;;;;;;;24.08;17.80;;;34.50;94.00;;;;;;5048067;28;20390;-70
2023/04/17 10:55:16;;;;;;;18.48;10.07;;;34.40;93.60;;;;;;5056517;28;20370;-69
2023/04/17 10:57:55;;;;;;;10.25;7.65;;;34.50;93.50;;;;;;5053671;28;20470;-70
2023/04/17 11:00:30;;;;;;;13.93;7.85;;;34.40;93.10;;;;;;5060663;28;20455;-72
2023/04/17 11:02:59;;;;;;;18.23;9.00;;;34.30;92.90;;;;;;5067403;28;20380;-69
2023/04/17 11:05:25;;;;;;;14.30;9.32;;;34.40;92.90;;;;;;5063284;28;20389;-71
2023/04/17 11:07:52;;;;;;;17.08;11.00;;;34.30;92.80;;;;;;5044048;28;20778;-71
2023/04/17 11:10:20;;;;;;;19.13;12.50;;;34.20;93.00;;;;;;5036258;28;20741;-70
2023/04/17 11:12:48;;;;;;;18.00;12.30;;;34.20;93.20;;;;;;5045076;28;20531;-70
2023/04/17 11:15:15;;;;;;;41.38;29.52;;;34.20;93.40;;;;;;5055235;28;20717;-71
2023/04/17 11:17:51;;;;;;;26.67;16.73;;;34.20;93.70;;;;;;5035914;28;20424;-71
2023/04/17 11:20:21;;;;;;;41.80;27.60;;;34.10;94.10;;;;;;5050988;28;20419;-73
2023/04/17 11:22:47;;;;;;;36.53;26.98;;;34.10;94.70;;;;;;5055600;28;20469;-73
2023/04/17 11:25:22;;;;;;;85.25;46.30;;;34.10;95.20;;;;;;5060185;28;20421;-69
2023/04/17 11:28:04;;;;;;;27.25;16.45;;;34.00;95.60;;;;;;5051938;28;20458;-71
2023/04/17 11:30:32;;;;;;;24.80;14.70;;;34.00;95.70;;;;;;5055594;28;20391;-73
2023/04/17 11:33:02;;;;;;;21.23;13.57;;;34.00;95.90;;;;;;5056191;28;20737;-71
2023/04/17 11:35:33;;;;;;;54.22;34.13;;;34.00;96.10;;;;;;5057343;28;20407;-69
2023/04/17 11:38:10;;;;;;;44.78;33.60;;;34.00;96.40;;;;;;5064395;28;20363;-72
2023/04/17 11:40:58;;;;;;;67.22;40.95;;;33.90;97.40;;;;;;5065195;28;20406;-74
2023/04/17 11:43:25;;;;;;;91.68;67.60;;;33.90;98.10;;;;;;5061979;28;20462;-75
2023/04/17 11:45:55;;;;;;;99.88;66.38;;;33.80;98.10;;;;;;5060569;28;20398;-71
2023/04/17 11:48:23;;;;;;;86.95;53.58;;;33.80;98.60;;;;;;5048032;28;20412;-74
2023/04/17 11:50:55;;;;;;;82.73;52.67;;;33.70;99.20;;;;;;5040110;28;20483;-70
2023/04/17 11:53:22;;;;;;;81.43;51.47;;;33.70;99.90;;;;;;5056972;28;20375;-70
2023/04/17 11:56:08;;;;;;;75.32;47.00;;;33.70;99.90;;;;;;5055210;28;20910;-72
2023/04/17 11:58:46;;;;;;;82.20;50.08;;;33.60;99.90;;;;;;5057375;28;20883;-74
2023/04/17 12:01:13;;;;;;;103.90;71.57;;;33.50;99.90;;;;;;5050108;28;20407;-74
2023/04/17 12:03:39;;;;;;;246.85;180.65;;;33.40;99.90;;;;;;5052599;28;20359;-74
2023/04/17 12:06:06;;;;;;;218.77;152.27;;;33.30;99.90;;;;;;5057377;28;20407;-73
2023/04/17 12:08:46;;;;;;;538.88;327.90;;;33.30;99.90;;;;;;5062659;28;20382;-72
2023/04/17 12:11:28;;;;;;;570.20;406.45;;;33.40;99.90;;;;;;5058292;28;20371;-71
2023/04/17 12:13:55;;;;;;;1396.03;999.90;;;33.40;99.90;;;;;;5057845;28;20378;-67
2023/04/17 12:16:24;;;;;;;1229.85;998.45;;;33.30;99.90;;;;;;5057323;28;20538;-66
2023/04/17 12:18:51;;;;;;;1999.90;999.90;;;33.30;99.90;;;;;;5050341;28;20483;-70
2023/04/17 12:21:19;;;;;;;630.72;476.20;;;33.20;99.90;;;;;;5050916;28;20392;-70
2023/04/17 12:23:46;;;;;;;1353.23;999.90;;;33.20;99.90;;;;;;5051953;28;20839;-72
2023/04/17 12:26:13;;;;;;;1386.30;999.90;;;33.20;99.90;;;;;;5047888;28;20403;-70
2023/04/17 12:28:40;;;;;;;762.03;557.77;;;33.20;99.90;;;;;;5041348;28;20395;-71
2023/04/17 12:31:06;;;;;;;291.45;183.43;;;33.20;99.90;;;;;;5057781;28;20419;-68
2023/04/17 12:33:33;;;;;;;351.73;231.40;;;33.20;99.90;;;;;;5055960;28;20366;-68
2023/04/17 12:36:01;;;;;;;348.88;174.32;;;33.20;99.90;;;;;;5061761;28;20378;-71
2023/04/17 12:38:29;;;;;;;457.20;252.10;;;33.20;99.90;;;;;;5056022;28;20391;-68
2023/04/17 12:40:56;;;;;;;398.60;223.13;;;33.20;99.90;;;;;;5062762;28;20907;-69
2023/04/17 12:43:22;;;;;;;313.15;171.43;;;33.10;99.90;;;;;;5061749;28;20393;-68
2023/04/17 12:45:49;;;;;;;608.17;375.33;;;33.10;99.90;;;;;;5062644;28;20392;-72